Latest Weather Observations for Gatton

IDQ60801

Issued at 5:02 pm EST Saturday 13 February 2016 (issued every 30 minutes, with the page automatically refreshed every 10 minutes)

About weather observations | Map of weather stations | Latest weather observations for QLD | Other Formats
Station Details ID: 040082 Name: UNIVERSITY OF QUEENSLAND GATTON Lat: -27.54 Lon: 152.34 Height: 89.0 m
Data from the previous 72 hours. | See also: Recent months at Gatton
Date/Time
EST
Temp
°C
App
Temp
°C
Dew
Point
Rel
Hum
%
Delta-T
°C
Wind Press
QNH
hPa
Press
MSL
hPa
Rain
since 9 am
mm
Dir
 
Spd
km/h
Gust
km/h
Spd
kts
Gust
kts
13/05:00pm 28.6 26.9 17.2 50 7.2 SE 22 32 12 17 - - 0.0
13/04:30pm 28.7 26.9 17.9 52 6.9 SE 24 39 13 21 - - 0.0
13/04:00pm 29.4 27.4 18.2 51 7.2 ESE 26 43 14 23 - - 0.0
13/03:30pm 30.5 29.5 18.9 50 7.5 SE 22 33 12 18 - - 0.0
13/03:00pm 28.9 27.4 17.7 50 7.1 ESE 22 35 12 19 - - 0.0
13/02:30pm 28.5 26.2 17.7 52 6.9 E 26 35 14 19 - - 0.0
13/02:00pm 28.6 26.7 16.8 48 7.4 SE 22 35 12 19 - - 0.0
13/01:30pm 29.3 26.8 17.2 48 7.7 ESE 26 39 14 21 - - 0.0
13/01:00pm 29.4 27.3 17.2 47 7.7 SE 24 35 13 19 - - 0.0
13/12:30pm 29.6 26.0 17.1 47 7.9 ESE 32 39 17 21 - - 0.0
13/12:00pm 29.4 26.3 16.6 46 8.0 SE 28 39 15 21 - - 0.0
13/11:30am 29.1 25.9 16.3 46 8.0 SSE 28 41 15 22 - - 0.0
13/11:00am 30.0 27.2 16.4 44 8.5 ESE 26 37 14 20 - - 0.0
13/10:30am 28.4 25.7 15.7 46 7.8 SE 24 39 13 21 - - 0.0
13/10:00am 27.6 25.5 15.3 47 7.5 SSE 20 28 11 15 - - 0.0
13/09:30am 27.4 24.9 15.1 47 7.5 SSE 22 30 12 16 - - 0.0
13/09:00am 26.8 24.9 15.8 51 6.8 SSE 20 32 11 17 - - 0.0
13/08:30am 25.9 23.9 15.6 53 6.3 SSE 20 32 11 17 - - 0.0
13/08:00am 23.6 23.5 16.1 62 4.6 SSW 11 15 6 8 - - 0.0
13/07:30am 20.7 20.2 15.0 70 3.4 WSW 11 15 6 8 - - 0.0
13/07:00am 19.0 18.4 14.7 76 2.5 W 11 15 6 8 - - 0.0
13/06:30am 17.0 16.5 13.9 82 1.8 W 9 13 5 7 - - 0.0
13/06:00am 15.8 14.8 13.3 85 1.4 W 11 17 6 9 - - 0.0
13/05:30am 15.3 14.5 12.8 85 1.4 W 9 13 5 7 - - 0.0
13/05:00am 15.6 14.4 12.9 84 1.5 WSW 11 13 6 7 - - 0.0
13/04:30am 15.8 15.0 12.9 83 1.6 WSW 9 13 5 7 - - 0.0
13/04:00am 15.9 15.7 13.0 83 1.6 WSW 6 13 3 7 - - 0.0
13/03:30am 15.9 16.4 14.1 89 1.0 SW 4 9 2 5 - - 0.0
13/03:00am 15.7 16.9 13.9 89 1.0 CALM 0 0 0 0 - - 0.0
13/02:30am 16.4 17.9 14.6 89 1.0 CALM 0 0 0 0 - - 0.0
13/02:00am 16.4 17.7 14.1 86 1.3 CALM 0 0 0 0 - - 0.0
13/01:30am 16.3 17.4 13.4 83 1.6 CALM 0 0 0 0 - - 0.0
13/01:00am 17.7 19.3 14.8 83 1.7 CALM 0 0 0 0 - - 0.0
13/12:30am 17.6 18.8 13.7 78 2.2 CALM 0 0 0 0 - - 0.0
13/12:00am 18.6 19.9 14.1 75 2.6 CALM 0 0 0 0 - - 0.0
 
Date/Time
EST
Temp
°C
App
Temp
°C
Dew
Point
Rel
Hum
%
Delta-T
°C
Wind Press
QNH
hPa
Press
MSL
hPa
Rain
since 9 am
mm
Dir
 
Spd
km/h
Gust
km/h
Spd
kts
Gust
kts
12/11:30pm 20.2 21.2 14.3 69 3.4 ESE 2 7 1 4 - - 0.0
12/11:00pm 20.9 21.1 14.3 66 3.9 SSE 6 9 3 5 - - 0.0
12/10:30pm 21.5 21.8 14.4 64 4.2 SE 6 11 3 6 - - 0.0
12/10:00pm 22.2 21.1 14.3 61 4.6 SE 13 20 7 11 - - 0.0
12/09:30pm 20.9 21.9 13.1 61 4.5 CALM 0 7 0 4 - - 0.0
12/09:00pm 22.0 22.6 13.1 57 5.1 SSE 2 9 1 5 - - 0.0
12/08:30pm 23.0 23.5 15.1 61 4.7 SE 6 11 3 6 - - 0.0
12/08:00pm 23.2 24.8 15.0 60 4.9 CALM 0 0 0 0 - - 0.0
12/07:30pm 24.3 23.6 15.5 58 5.3 E 13 19 7 10 - - 0.0
12/07:00pm 25.8 24.1 15.8 54 6.1 E 19 24 10 13 - - 0.0
12/06:30pm 26.6 24.5 16.2 52 6.4 E 22 32 12 17 - - 0.0
12/06:00pm 27.4 24.7 16.7 52 6.7 E 26 33 14 18 - - 0.0
12/05:30pm 28.4 26.7 17.3 51 7.0 E 22 30 12 16 - - 0.0
12/05:00pm 28.1 25.2 17.0 51 7.0 E 28 37 15 20 - - 0.0
12/04:30pm 28.6 26.9 17.2 50 7.2 E 22 32 12 17 - - 0.0
12/04:00pm 29.8 28.2 16.6 45 8.3 E 20 32 11 17 - - 0.0
12/03:30pm 30.0 27.6 16.4 44 8.5 E 24 33 13 18 - - 0.0
12/03:00pm 30.2 27.2 15.9 42 8.9 E 26 35 14 19 - - 0.0
12/02:30pm 30.8 27.4 14.8 37 9.8 ESE 26 32 14 17 - - 0.0
12/02:00pm 31.7 29.8 15.2 36 10.2 ESE 19 28 10 15 - - 0.0
12/01:30pm 31.3 28.1 15.3 38 9.9 SE 26 35 14 19 - - 0.0
12/01:00pm 30.4 28.0 14.5 38 9.7 SSE 20 35 11 19 - - 0.0
12/12:30pm 31.6 28.7 16.0 39 9.8 SE 26 37 14 20 - - 0.0
12/12:00pm 30.6 28.2 15.5 40 9.4 SE 22 32 12 17 - - 0.0
12/11:30am 30.4 28.1 15.7 41 9.1 SE 22 32 12 17 - - 0.0
12/11:00am 28.5 27.2 15.8 46 7.8 SSE 17 26 9 14 - - 0.0
12/10:30am 28.7 26.9 15.9 45 7.9 ESE 20 33 11 18 - - 0.0
12/10:00am 27.5 25.6 15.8 48 7.2 SSE 20 28 11 15 - - 0.0
12/09:30am 27.0 24.8 16.0 51 6.8 SE 22 39 12 21 - - 0.0
12/09:00am 26.4 24.9 16.3 53 6.2 SSE 19 24 10 13 - - 0.0
12/08:30am 25.8 24.2 16.1 55 6.0 SSE 19 30 10 16 - - 0.0
12/08:00am 25.0 23.4 15.9 57 5.6 SSE 19 24 10 13 - - 0.0
12/07:30am 23.6 23.7 16.6 65 4.3 SSE 11 15 6 8 - - 0.0
12/07:00am 21.0 22.0 16.4 75 2.8 W 6 9 3 5 - - 0.0
12/06:30am 18.8 20.5 16.2 85 1.6 W 2 7 1 4 - - 0.0
12/06:00am 17.3 17.8 15.6 90 1.0 W 7 9 4 5 - - 0.0
12/05:30am 16.7 18.3 14.9 89 1.0 CALM 0 7 0 4 - - 0.0
12/05:00am 16.9 17.5 15.4 91 0.9 WSW 6 9 3 5 - - 0.0
12/04:30am 16.8 18.5 15.3 91 0.9 CALM 0 0 0 0 - - 0.0
12/04:00am 16.9 18.7 15.4 91 0.9 CALM 0 0 0 0 - - 0.0
12/03:30am 16.7 18.1 14.5 87 1.3 CALM 0 0 0 0 - - 0.0
12/03:00am 17.1 18.7 14.9 87 1.3 CALM 0 0 0 0 - - 0.0
12/02:30am 18.4 20.5 16.2 87 1.3 CALM 0 0 0 0 - - 0.0
12/02:00am 18.7 20.5 15.6 82 1.8 CALM 0 0 0 0 - - 0.0
12/01:30am 19.2 21.5 16.8 86 1.5 CALM 0 0 0 0 - - 0.0
12/01:00am 18.3 20.1 15.4 83 1.7 CALM 0 0 0 0 - - 0.0
12/12:30am 19.2 20.9 16.1 82 1.9 WSW 2 9 1 5 - - 0.0
12/12:00am 20.1 21.0 16.5 80 2.2 WSW 7 9 4 5 - - 0.0
 
Date/Time
EST
Temp
°C
App
Temp
°C
Dew
Point
Rel
Hum
%
Delta-T
°C
Wind Press
QNH
hPa
Press
MSL
hPa
Rain
since 9 am
mm
Dir
 
Spd
km/h
Gust
km/h
Spd
kts
Gust
kts
11/11:30pm 21.0 23.2 16.6 76 2.7 CALM 0 4 0 2 - - 0.0
11/11:00pm 22.3 24.9 17.4 74 3.0 CALM 0 0 0 0 - - 0.0
11/10:30pm 22.3 24.3 17.0 72 3.3 E 2 7 1 4 - - 0.0
11/10:00pm 22.5 23.2 17.0 71 3.4 E 9 13 5 7 - - 0.0
11/09:30pm 22.9 24.1 17.4 71 3.4 E 7 11 4 6 - - 0.0
11/09:00pm 23.6 23.5 16.9 66 4.1 E 13 19 7 10 - - 0.0
11/08:30pm 24.4 24.5 16.6 61 4.8 ENE 11 17 6 9 - - 0.0
11/08:00pm 24.9 23.6 16.9 61 5.0 E 19 30 10 16 - - 0.0
11/07:30pm 25.4 23.9 16.8 59 5.3 ENE 20 26 11 14 - - 0.0
11/07:00pm 25.9 23.6 16.7 57 5.7 ENE 24 32 13 17 - - 0.0
11/06:30pm 27.0 24.8 16.9 54 6.3 E 24 33 13 18 - - 0.0
11/06:00pm 28.1 25.6 17.0 51 7.0 E 26 35 14 19 - - 0.0
11/05:30pm 29.3 26.3 16.8 47 7.9 E 28 35 15 19 - - 0.0
11/05:00pm 30.5 28.4 16.1 41 9.0 E 22 30 12 16 - - 0.0
11/04:30pm 30.3 27.7 14.8 39 9.5 E 22 32 12 17 - - 0.0
11/04:00pm 32.1 30.3 15.6 37 10.3 E 19 26 10 14 - - 0.0
11/03:30pm 32.3 30.0 14.0 33 11.2 SE 19 24 10 13 - - 0.0
11/03:00pm 31.0 29.3 13.7 34 10.4 SE 15 24 8 13 - - 0.0
11/02:30pm 31.9 29.0 14.1 34 10.9 ESE 22 30 12 16 - - 0.0
11/02:00pm 32.3 30.5 14.4 33 11.0 E 17 28 9 15 - - 0.0
11/01:30pm 32.0 30.3 14.6 34 10.7 E 17 30 9 16 - - 0.0
11/01:00pm 31.0 29.2 13.3 34 10.6 ESE 15 30 8 16 - - 0.0
11/12:30pm 29.8 28.3 13.1 36 9.9 SE 13 30 7 16 - - 0.0
11/12:00pm 30.8 28.3 14.0 36 10.2 ESE 20 28 11 15 - - 0.0
11/11:30am 30.7 28.3 14.3 36 10.0 E 20 32 11 17 - - 0.0
11/11:00am 30.2 28.1 14.7 39 9.5 ESE 19 30 10 16 - - 0.0
11/10:30am 28.7 27.1 14.9 43 8.4 SE 17 28 9 15 - - 0.0
11/10:00am 29.0 26.5 16.2 46 8.0 E 24 33 13 18 - - 0.0
11/09:30am 28.0 26.2 16.0 48 7.4 SE 20 30 11 16 - - 0.0
11/09:00am 27.3 26.2 16.3 51 6.8 E 17 26 9 14 - - 0.0
11/08:30am 25.8 24.7 16.4 56 5.8 E 17 26 9 14 - - 0.0
11/08:00am 24.3 24.8 17.5 66 4.2 SSE 11 17 6 9 - - 0.0
11/07:30am 22.2 23.4 17.3 74 3.0 WSW 7 11 4 6 - - 0.0
11/07:00am 20.5 21.3 17.3 82 2.0 W 9 11 5 6 - - 0.0
11/06:30am 18.9 19.5 16.9 88 1.2 WSW 9 11 5 6 - - 0.0
11/06:00am 17.6 18.4 16.3 92 0.8 WSW 7 9 4 5 - - 0.0
11/05:30am 17.0 17.1 15.5 91 0.9 W 9 11 5 6 - - 0.0
11/05:00am 17.3 17.8 15.5 89 1.1 WSW 7 9 4 5 - - 0.0
11/04:30am 18.2 19.0 16.4 89 1.1 WSW 7 9 4 5 - - 0.0
11/04:00am 18.9 20.2 17.2 90 1.0 W 6 9 3 5 - - 0.0
11/03:30am 18.5 19.6 17.0 91 0.9 WSW 7 9 4 5 - - 0.0
11/03:00am 18.1 19.7 16.8 92 0.8 S 4 7 2 4 - - 0.0
11/02:30am 17.7 19.7 16.0 90 1.0 CALM 0 0 0 0 - - 0.0
11/02:00am 17.3 19.1 15.6 90 1.0 CALM 0 0 0 0 - - 0.0
11/01:30am 17.6 19.5 15.8 89 1.1 CALM 0 0 0 0 - - 0.0
11/01:00am 17.8 19.6 15.6 87 1.3 CALM 0 0 0 0 - - 0.0
11/12:30am 18.8 21.0 16.6 87 1.3 CALM 0 0 0 0 - - 0.0
11/12:00am 19.3 21.4 16.3 83 1.8 CALM 0 0 0 0 - - 0.0
 
Date/Time
EST
Temp
°C
App
Temp
°C
Dew
Point
Rel
Hum
%
Delta-T
°C
Wind Press
QNH
hPa
Press
MSL
hPa
Rain
since 9 am
mm
Dir
 
Spd
km/h
Gust
km/h
Spd
kts
Gust
kts
10/11:30pm 19.8 22.1 16.8 83 1.8 CALM 0 0 0 0 - - 0.0
10/11:00pm 20.6 23.0 17.0 80 2.2 CALM 0 0 0 0 - - 0.0
10/10:30pm 21.3 23.8 17.3 78 2.5 CALM 0 0 0 0 - - 0.0
10/10:00pm 21.8 22.4 17.6 77 2.6 ENE 11 13 6 7 - - 0.0
10/09:30pm 22.4 23.0 17.8 75 2.9 E 11 19 6 10 - - 0.0
10/09:00pm 22.8 23.2 18.1 75 2.9 ENE 13 17 7 9 - - 0.0
10/08:30pm 23.3 23.3 18.0 72 3.3 ENE 15 20 8 11 - - 0.0
10/08:00pm 24.0 23.3 18.2 70 3.7 ENE 19 26 10 14 - - 0.0
10/07:30pm 24.7 23.5 18.4 68 4.0 E 22 28 12 15 - - 0.0
10/07:00pm 25.4 23.0 18.3 65 4.5 E 28 35 15 19 - - 0.0
10/06:30pm 26.7 24.3 18.3 60 5.4 E 28 35 15 19 - - 0.0
10/06:00pm 29.5 27.5 14.9 41 8.9 ESE 19 28 10 15 - - 0.0
10/05:30pm 30.2 28.5 14.7 39 9.5 SE 17 20 9 11 - - 0.0

Other Formats:

Comma delimited format used in spreadsheet applications
http://www.bom.gov.au/fwo/IDQ60801/IDQ60801.94562.axf

JavaScript Object Notation format (JSON) in row-major order
http://www.bom.gov.au/fwo/IDQ60801/IDQ60801.94562.json